createdAt,value
2022-12-17T00:02:14.000Z,42.70
2022-12-17T00:04:59.394Z,38.80
2022-12-17T00:07:44.677Z,38.77
2022-12-17T00:10:30.138Z,38.83
2022-12-17T00:13:15.460Z,42.37
2022-12-17T00:16:00.878Z,42.37
2022-12-17T00:18:46.334Z,41.80
2022-12-17T00:21:31.695Z,42.40
2022-12-17T00:24:17.107Z,42.37
2022-12-17T00:27:02.567Z,44.20
2022-12-17T00:29:47.933Z,46.30
2022-12-17T00:32:33.351Z,42.97
2022-12-17T00:35:18.778Z,44.77
2022-12-17T00:38:06.637Z,44.97
2022-12-17T00:40:52.018Z,42.37
2022-12-17T00:43:37.597Z,42.47
2022-12-17T00:46:23.560Z,42.20
2022-12-17T00:49:08.834Z,42.50
2022-12-17T00:51:54.050Z,43.00
2022-12-17T00:54:39.493Z,39.90
2022-12-17T00:57:24.917Z,42.90
2022-12-17T01:00:10.343Z,43.37
2022-12-17T01:02:55.638Z,47.33
2022-12-17T01:05:41.421Z,46.97
2022-12-17T01:08:32.865Z,46.73
2022-12-17T01:11:22.797Z,50.27
2022-12-17T01:14:08.173Z,49.17
2022-12-17T01:17:04.992Z,49.83
2022-12-17T01:19:50.336Z,57.50
2022-12-17T01:22:35.684Z,47.20
2022-12-17T01:25:21.023Z,56.67
2022-12-17T01:28:09.433Z,49.70
2022-12-17T01:30:56.208Z,53.00
2022-12-17T01:33:42.107Z,51.07
2022-12-17T01:36:27.456Z,48.70
2022-12-17T01:39:12.934Z,54.90
2022-12-17T01:41:58.017Z,50.53
2022-12-17T01:44:58.134Z,50.03
2022-12-17T01:47:53.273Z,49.07
2022-12-17T01:51:00.898Z,54.70
2022-12-17T01:53:53.517Z,55.10
2022-12-17T01:56:39.489Z,53.30
2022-12-17T01:59:26.464Z,54.07
2022-12-17T02:02:11.977Z,50.60
2022-12-17T02:04:57.734Z,51.37
2022-12-17T02:08:06.785Z,47.03
2022-12-17T02:11:04.760Z,48.13
2022-12-17T02:13:58.322Z,44.93
2022-12-17T02:17:00.647Z,44.10
2022-12-17T02:20:26.949Z,46.27
2022-12-17T02:23:40.350Z,40.00
2022-12-17T02:26:42.565Z,41.10
2022-12-17T02:29:27.982Z,38.03
2022-12-17T02:32:13.274Z,42.67
2022-12-17T02:35:06.171Z,41.07
2022-12-17T02:37:51.728Z,39.17
2022-12-17T02:40:38.782Z,40.73
2022-12-17T02:43:25.770Z,41.63
2022-12-17T02:46:14.834Z,40.23
2022-12-17T02:49:00.592Z,40.30
2022-12-17T02:51:46.105Z,42.63
2022-12-17T02:54:31.473Z,36.60
2022-12-17T02:57:16.908Z,37.17
2022-12-17T03:00:02.158Z,36.77
2022-12-17T03:02:47.681Z,37.73
2022-12-17T03:05:48.034Z,47.40
2022-12-17T03:08:33.449Z,39.37
2022-12-17T03:11:18.922Z,38.00
2022-12-17T03:14:04.307Z,43.93
2022-12-17T03:16:49.589Z,35.77
2022-12-17T03:19:34.942Z,38.50
2022-12-17T03:22:22.905Z,36.23
2022-12-17T03:25:08.215Z,40.83
2022-12-17T03:27:53.556Z,36.27
2022-12-17T03:30:39.267Z,36.77
2022-12-17T03:33:26.946Z,29.13
2022-12-17T03:36:14.886Z,32.20
2022-12-17T03:39:00.263Z,37.67
2022-12-17T03:41:45.616Z,34.20
2022-12-17T03:44:30.977Z,34.60
2022-12-17T03:47:16.278Z,33.70
2022-12-17T03:50:01.739Z,37.00
2022-12-17T03:52:47.162Z,35.43
2022-12-17T03:55:32.446Z,35.73
2022-12-17T03:58:17.754Z,32.23
2022-12-17T04:01:03.012Z,37.70
2022-12-17T04:03:48.394Z,32.00
2022-12-17T04:06:33.883Z,37.53
2022-12-17T04:09:19.328Z,37.03
2022-12-17T04:12:04.731Z,38.53
2022-12-17T04:14:50.124Z,37.70
2022-12-17T04:17:35.566Z,40.63
2022-12-17T04:20:20.820Z,36.40
2022-12-17T04:23:19.888Z,39.27
2022-12-17T04:26:05.473Z,40.20
2022-12-17T04:28:50.472Z,36.80
2022-12-17T04:31:36.069Z,37.87
2022-12-17T04:34:21.149Z,40.13
2022-12-17T04:37:06.699Z,39.97
2022-12-17T04:39:51.942Z,42.37
2022-12-17T04:42:37.310Z,39.07
2022-12-17T04:45:22.818Z,41.03
2022-12-17T04:48:08.189Z,43.90
2022-12-17T04:50:53.704Z,42.03
2022-12-17T04:53:39.374Z,43.37
2022-12-17T04:56:24.755Z,48.10
2022-12-17T04:59:10.099Z,44.10
2022-12-17T05:01:55.493Z,39.83
2022-12-17T05:04:40.864Z,37.50
2022-12-17T05:07:27.164Z,43.70
2022-12-17T05:10:12.457Z,39.57
2022-12-17T05:12:57.758Z,38.20
2022-12-17T05:15:51.329Z,39.80
2022-12-17T05:18:38.089Z,38.20
2022-12-17T05:21:23.539Z,35.00
2022-12-17T05:24:08.837Z,33.00
2022-12-17T05:26:54.147Z,36.47
2022-12-17T05:29:39.562Z,33.70
2022-12-17T05:32:24.848Z,33.03
2022-12-17T05:35:10.279Z,34.23
2022-12-17T05:37:55.285Z,33.93
2022-12-17T05:40:40.766Z,36.70
2022-12-17T05:43:30.112Z,33.07
2022-12-17T05:46:19.408Z,35.60
2022-12-17T05:49:04.526Z,35.27
2022-12-17T05:51:49.954Z,33.50
2022-12-17T05:54:35.341Z,34.00
2022-12-17T05:57:20.778Z,30.00
2022-12-17T06:00:06.186Z,35.53
2022-12-17T06:02:51.814Z,34.03
2022-12-17T06:05:36.956Z,28.03
2022-12-17T06:08:26.755Z,34.10
2022-12-17T06:11:12.662Z,36.40
2022-12-17T06:13:58.196Z,36.07
2022-12-17T06:16:43.412Z,39.07
2022-12-17T06:19:28.816Z,39.50
2022-12-17T06:22:14.227Z,39.37
2022-12-17T06:24:59.494Z,38.90
2022-12-17T06:27:45.012Z,36.77
2022-12-17T06:30:30.407Z,35.00
2022-12-17T06:33:26.548Z,37.30
2022-12-17T06:36:19.707Z,39.03
2022-12-17T06:39:06.794Z,40.53
2022-12-17T06:41:52.251Z,37.03
2022-12-17T06:44:37.550Z,33.40
2022-12-17T06:47:22.919Z,35.17
2022-12-17T06:50:08.346Z,40.13
2022-12-17T06:52:53.721Z,35.70
2022-12-17T06:55:39.144Z,38.43
2022-12-17T06:58:24.516Z,38.97
2022-12-17T07:01:10.280Z,33.70
2022-12-17T07:03:55.731Z,39.03
2022-12-17T07:06:41.179Z,32.30
2022-12-17T07:09:26.434Z,33.80
2022-12-17T07:12:11.861Z,31.37
2022-12-17T07:14:57.331Z,32.77
2022-12-17T07:17:42.716Z,35.73
2022-12-17T07:20:28.538Z,37.27
2022-12-17T07:23:14.969Z,36.17
2022-12-17T07:26:01.305Z,37.50
2022-12-17T07:28:46.691Z,36.60
2022-12-17T07:31:32.147Z,33.40
2022-12-17T07:34:17.295Z,42.53
2022-12-17T07:37:02.814Z,40.23
2022-12-17T07:39:47.914Z,43.37
2022-12-17T07:42:33.424Z,36.37
2022-12-17T07:45:18.957Z,35.30
2022-12-17T07:48:11.552Z,39.57
2022-12-17T07:50:56.946Z,37.00
2022-12-17T07:53:43.817Z,41.73
2022-12-17T07:56:29.272Z,37.70
2022-12-17T07:59:14.603Z,36.90
2022-12-17T08:02:00.317Z,36.40
2022-12-17T08:04:45.479Z,34.23
2022-12-17T08:07:30.981Z,34.43
2022-12-17T08:10:16.080Z,37.23
2022-12-17T08:13:01.439Z,31.97
2022-12-17T08:15:46.854Z,37.37
2022-12-17T08:18:32.254Z,35.93
2022-12-17T08:21:17.706Z,34.73
2022-12-17T08:24:03.232Z,35.87
2022-12-17T08:26:48.623Z,34.20
2022-12-17T08:29:33.907Z,36.50
2022-12-17T08:32:19.242Z,34.40
2022-12-17T08:35:04.577Z,33.67
2022-12-17T08:37:50.073Z,34.23
2022-12-17T08:40:35.570Z,33.97
2022-12-17T08:43:20.845Z,34.70
2022-12-17T08:46:07.306Z,36.70
2022-12-17T08:48:52.510Z,35.53
2022-12-17T08:51:38.088Z,36.93
2022-12-17T08:54:23.474Z,35.13
2022-12-17T08:57:08.849Z,36.43
2022-12-17T08:59:54.276Z,34.23
2022-12-17T09:02:39.892Z,36.03
2022-12-17T09:05:26.122Z,34.67
2022-12-17T09:08:25.415Z,37.20
2022-12-17T09:11:11.617Z,40.93
2022-12-17T09:13:57.228Z,36.53
2022-12-17T09:16:43.209Z,33.97
2022-12-17T09:19:29.427Z,35.33
2022-12-17T09:22:14.741Z,37.33
2022-12-17T09:25:00.028Z,35.17
2022-12-17T09:27:45.315Z,37.50
2022-12-17T09:30:31.304Z,32.67
2022-12-17T09:33:16.516Z,36.07
2022-12-17T09:36:02.067Z,35.20
2022-12-17T09:38:47.449Z,36.57
2022-12-17T09:42:05.283Z,35.90
2022-12-17T09:45:05.453Z,32.27
2022-12-17T09:48:18.853Z,31.17
2022-12-17T09:51:08.423Z,31.03
2022-12-17T09:54:19.887Z,32.00
2022-12-17T09:57:06.527Z,32.23
2022-12-17T09:59:55.151Z,34.03
2022-12-17T10:02:45.818Z,33.67
2022-12-17T10:05:41.442Z,30.20
2022-12-17T10:08:31.892Z,30.73
2022-12-17T10:11:34.420Z,33.03
2022-12-17T10:14:21.581Z,33.43
2022-12-17T10:17:11.677Z,31.73
2022-12-17T10:20:00.101Z,36.13
2022-12-17T10:22:45.569Z,48.80
2022-12-17T10:25:48.905Z,45.33
2022-12-17T10:28:40.575Z,38.73
2022-12-17T10:31:28.670Z,35.50
2022-12-17T10:34:16.027Z,36.37
2022-12-17T10:37:07.080Z,37.13
2022-12-17T10:39:52.262Z,37.87
2022-12-17T10:42:46.163Z,37.03
2022-12-17T10:45:52.043Z,36.97
2022-12-17T10:48:41.739Z,33.13
2022-12-17T10:51:55.487Z,33.53
2022-12-17T10:54:51.103Z,32.80
2022-12-17T10:57:54.455Z,36.03
2022-12-17T11:00:47.564Z,34.10
2022-12-17T11:03:48.953Z,41.27
2022-12-17T11:06:53.648Z,38.03
2022-12-17T11:10:09.427Z,34.77
2022-12-17T11:13:04.605Z,41.93
2022-12-17T11:15:59.231Z,38.87
2022-12-17T11:18:53.996Z,36.43
2022-12-17T11:21:44.047Z,36.70
2022-12-17T11:24:32.918Z,38.60
2022-12-17T11:27:22.331Z,35.20
2022-12-17T11:30:07.745Z,41.00
2022-12-17T11:33:22.571Z,40.93
2022-12-17T11:36:33.796Z,36.10
2022-12-17T11:39:34.106Z,36.40
2022-12-17T11:42:35.318Z,40.27
2022-12-17T11:45:51.199Z,41.43
2022-12-17T11:49:16.011Z,41.20
2022-12-17T11:52:30.024Z,40.13
2022-12-17T11:55:36.402Z,36.30
2022-12-17T11:58:25.029Z,39.73
2022-12-17T12:01:37.212Z,37.63
2022-12-17T12:05:00.014Z,47.90
2022-12-17T12:08:11.976Z,40.60
2022-12-17T12:11:32.467Z,43.10
2022-12-17T12:14:38.059Z,38.07
2022-12-17T12:17:56.427Z,39.07
2022-12-17T12:20:52.362Z,36.63
2022-12-17T12:23:53.539Z,38.43
2022-12-17T12:26:42.853Z,40.30
2022-12-17T12:29:46.314Z,42.33
2022-12-17T12:32:52.996Z,45.40
2022-12-17T12:35:42.561Z,39.17
2022-12-17T12:38:45.802Z,43.63
2022-12-17T12:41:57.257Z,44.53
2022-12-17T12:44:59.350Z,45.93
2022-12-17T12:48:02.484Z,44.27
2022-12-17T12:51:14.156Z,41.30
2022-12-17T12:53:59.450Z,42.57
2022-12-17T12:56:55.647Z,41.20
2022-12-17T12:59:55.460Z,43.77
2022-12-17T13:02:49.422Z,40.83
2022-12-17T13:05:51.427Z,40.13
2022-12-17T13:08:23.739Z,37.60
2022-12-17T13:10:54.047Z,40.13
2022-12-17T13:13:55.699Z,35.90
2022-12-17T13:16:46.411Z,39.03
2022-12-17T13:19:36.078Z,33.47
2022-12-17T13:22:23.375Z,35.30
2022-12-17T13:24:53.722Z,35.33
2022-12-17T13:27:35.867Z,35.43
2022-12-17T13:30:22.970Z,40.50
2022-12-17T13:33:26.923Z,36.43
2022-12-17T13:36:21.630Z,33.60
2022-12-17T13:39:25.020Z,39.57
2022-12-17T13:41:55.654Z,36.10
2022-12-17T13:44:29.825Z,38.60
2022-12-17T13:46:56.500Z,40.30
2022-12-17T13:49:28.605Z,42.47
2022-12-17T13:52:02.502Z,37.43
2022-12-17T13:54:32.245Z,38.43
2022-12-17T13:57:16.545Z,42.23
2022-12-17T13:59:53.986Z,35.47
2022-12-17T14:02:37.301Z,42.37
2022-12-17T14:05:08.067Z,43.67
2022-12-17T14:07:38.971Z,44.17
2022-12-17T14:10:14.669Z,39.23
2022-12-17T14:12:44.121Z,40.83
2022-12-17T14:15:26.671Z,39.87
2022-12-17T14:17:54.629Z,41.10
2022-12-17T14:20:25.333Z,41.70
2022-12-17T14:23:14.345Z,42.20
2022-12-17T14:25:44.257Z,40.17
2022-12-17T14:28:29.900Z,41.70
2022-12-17T14:31:29.804Z,45.13
2022-12-17T14:34:08.871Z,41.70
2022-12-17T14:36:38.589Z,41.77
2022-12-17T14:39:17.220Z,45.87
2022-12-17T14:42:02.751Z,44.80
2022-12-17T14:44:31.011Z,43.30
2022-12-17T14:47:17.893Z,46.73
2022-12-17T14:50:13.869Z,43.73
2022-12-17T14:52:47.897Z,42.67
2022-12-17T14:55:35.295Z,41.67
2022-12-17T14:58:15.668Z,42.83
2022-12-17T15:00:55.795Z,44.70
2022-12-17T15:03:28.601Z,46.17
2022-12-17T15:06:00.399Z,45.93
2022-12-17T15:08:36.779Z,51.07
2022-12-17T15:11:03.871Z,45.83
2022-12-17T15:13:30.499Z,40.77
2022-12-17T15:15:57.657Z,44.77
2022-12-17T15:18:24.594Z,41.47
2022-12-17T15:20:51.303Z,42.83
2022-12-17T15:23:20.299Z,39.47
2022-12-17T15:25:49.470Z,41.03
2022-12-17T15:28:17.877Z,41.40
2022-12-17T15:30:45.991Z,41.47
2022-12-17T15:33:13.180Z,40.63
2022-12-17T15:35:40.586Z,44.17
2022-12-17T15:38:07.500Z,42.67
2022-12-17T15:40:36.148Z,45.70
2022-12-17T15:43:11.815Z,39.37
2022-12-17T15:45:43.505Z,48.57
2022-12-17T15:48:12.160Z,41.93
2022-12-17T15:50:38.911Z,42.20
2022-12-17T15:53:05.979Z,48.53
2022-12-17T15:55:32.591Z,40.23
2022-12-17T15:57:59.320Z,45.07
2022-12-17T16:00:26.111Z,50.40
2022-12-17T16:02:52.960Z,45.20
2022-12-17T16:05:20.894Z,46.27
2022-12-17T16:07:47.643Z,44.40
2022-12-17T16:10:14.743Z,48.70
2022-12-17T16:12:41.677Z,53.40
2022-12-17T16:15:10.062Z,49.70
2022-12-17T16:17:36.733Z,50.67
2022-12-17T16:20:05.489Z,46.53
2022-12-17T16:22:32.524Z,43.23
2022-12-17T16:24:59.293Z,44.93
2022-12-17T16:27:25.898Z,52.07
2022-12-17T16:29:52.508Z,43.87
2022-12-17T16:32:19.717Z,43.43
2022-12-17T16:34:46.786Z,41.07
2022-12-17T16:37:13.420Z,35.80
2022-12-17T16:39:40.031Z,42.20
2022-12-17T16:42:06.926Z,39.37
2022-12-17T16:44:33.658Z,42.90
2022-12-17T16:47:00.319Z,39.60
2022-12-17T16:49:27.028Z,43.03
2022-12-17T16:51:55.564Z,42.43
2022-12-17T16:54:27.058Z,40.97
2022-12-17T16:56:54.516Z,39.63
2022-12-17T16:59:21.914Z,35.97
2022-12-17T17:01:50.192Z,41.83
2022-12-17T17:04:19.389Z,40.30
2022-12-17T17:06:48.688Z,38.90
2022-12-17T17:09:16.285Z,38.00
2022-12-17T17:11:45.836Z,37.07
2022-12-17T17:14:16.602Z,40.23
2022-12-17T17:16:43.185Z,39.53
2022-12-17T17:19:09.810Z,37.00
2022-12-17T17:21:38.753Z,35.67
2022-12-17T17:24:20.381Z,37.37
2022-12-17T17:26:48.460Z,36.00
2022-12-17T17:29:15.112Z,38.10
2022-12-17T17:34:28.594Z,40.37
2022-12-17T17:36:55.159Z,40.47
2022-12-17T17:39:21.766Z,39.77
2022-12-17T17:41:48.716Z,38.37
2022-12-17T17:44:15.406Z,38.43
2022-12-17T17:46:42.349Z,36.17
2022-12-17T17:49:10.484Z,38.57
2022-12-17T17:54:28.158Z,37.37
2022-12-17T17:56:54.739Z,43.03
2022-12-17T17:59:25.154Z,46.70
2022-12-17T18:01:56.081Z,38.43
2022-12-17T18:04:24.302Z,39.30
2022-12-17T18:07:23.238Z,41.30
2022-12-17T18:09:37.530Z,41.57
2022-12-17T18:12:24.285Z,41.67
2022-12-17T18:15:13.845Z,41.37
2022-12-17T18:17:37.599Z,38.47
2022-12-17T18:20:04.857Z,41.13
2022-12-17T18:22:31.426Z,45.80
2022-12-17T18:24:58.035Z,42.27
2022-12-17T18:27:24.608Z,39.93
2022-12-17T18:29:51.162Z,36.63
2022-12-17T18:32:17.741Z,38.43
2022-12-17T18:34:44.385Z,35.20
2022-12-17T18:37:10.971Z,35.70
2022-12-17T18:39:37.598Z,32.37
2022-12-17T18:42:23.210Z,32.57
2022-12-17T18:44:49.924Z,36.50
2022-12-17T18:47:16.762Z,35.63
2022-12-17T18:49:43.577Z,34.90
2022-12-17T18:52:16.440Z,35.17
2022-12-17T18:54:44.214Z,31.27
2022-12-17T18:57:11.215Z,32.47
2022-12-17T18:59:38.525Z,34.60
2022-12-17T19:02:05.341Z,32.17
2022-12-17T19:04:32.973Z,28.13
2022-12-17T19:06:59.813Z,30.60
2022-12-17T19:09:31.201Z,36.07
2022-12-17T19:11:58.462Z,37.03
2022-12-17T19:14:25.813Z,39.13
2022-12-17T19:16:55.547Z,34.70
2022-12-17T19:19:22.838Z,39.83
2022-12-17T19:21:52.006Z,40.43
2022-12-17T19:24:19.486Z,33.50
2022-12-17T19:26:46.282Z,35.40
2022-12-17T19:29:14.409Z,41.27
2022-12-17T19:31:41.206Z,38.70
2022-12-17T19:34:11.926Z,37.20
2022-12-17T19:36:39.913Z,40.67
2022-12-17T19:39:11.524Z,33.83
2022-12-17T19:41:38.313Z,39.20
2022-12-17T19:44:07.701Z,34.07
2022-12-17T19:46:35.842Z,34.50
2022-12-17T19:49:02.964Z,36.80
2022-12-17T19:51:31.365Z,39.30
2022-12-17T19:54:03.195Z,37.60
2022-12-17T19:56:35.743Z,38.00
2022-12-17T19:59:06.852Z,35.13
2022-12-17T20:01:43.336Z,33.57
2022-12-17T20:04:12.726Z,36.00
2022-12-17T20:06:42.474Z,33.50
2022-12-17T20:09:09.149Z,33.87
2022-12-17T20:11:38.905Z,35.50
2022-12-17T20:14:23.751Z,31.73
2022-12-17T20:16:53.028Z,29.73
2022-12-17T20:19:22.212Z,33.37
2022-12-17T20:21:49.327Z,37.23
2022-12-17T20:24:16.888Z,35.13
2022-12-17T20:26:45.140Z,34.03
2022-12-17T20:29:12.111Z,35.33
2022-12-17T20:31:41.562Z,31.67
2022-12-17T20:34:13.708Z,38.90
2022-12-17T20:36:40.549Z,33.43
2022-12-17T20:39:08.466Z,26.53
2022-12-17T20:41:36.350Z,28.37
2022-12-17T20:44:06.522Z,30.57
2022-12-17T20:46:33.450Z,31.40
2022-12-17T20:49:03.182Z,27.57
2022-12-17T20:51:30.686Z,27.40
2022-12-17T20:53:59.532Z,29.60
2022-12-17T20:56:29.549Z,28.00
2022-12-17T20:58:58.967Z,26.77
2022-12-17T21:01:28.103Z,28.50
2022-12-17T21:03:56.304Z,29.97
2022-12-17T21:06:32.490Z,30.63
2022-12-17T21:08:59.275Z,32.60
2022-12-17T21:11:28.441Z,32.23
2022-12-17T21:13:55.623Z,30.10
2022-12-17T21:16:28.735Z,28.10
2022-12-17T21:18:56.955Z,31.53
2022-12-17T21:21:26.574Z,29.73
2022-12-17T21:23:53.846Z,27.93
2022-12-17T21:26:23.295Z,31.67
2022-12-17T21:28:52.290Z,33.70
2022-12-17T21:31:29.583Z,33.80
2022-12-17T21:33:59.577Z,29.17
2022-12-17T21:36:28.568Z,31.83
2022-12-17T21:38:55.659Z,30.67
2022-12-17T21:41:24.541Z,32.33
2022-12-17T21:43:59.864Z,33.27
2022-12-17T21:46:28.179Z,29.57
2022-12-17T21:48:59.264Z,31.13
2022-12-17T21:51:26.347Z,33.57
2022-12-17T21:53:58.603Z,30.27
2022-12-17T21:56:29.147Z,30.10
2022-12-17T21:59:00.832Z,28.73
2022-12-17T22:01:31.777Z,26.57
2022-12-17T22:04:01.051Z,32.37
2022-12-17T22:06:34.292Z,28.93
2022-12-17T22:09:09.068Z,33.10
2022-12-17T22:11:39.608Z,30.00
2022-12-17T22:14:09.044Z,32.80
2022-12-17T22:16:43.415Z,37.47
2022-12-17T22:19:12.524Z,33.60
2022-12-17T22:21:42.286Z,32.73
2022-12-17T22:24:17.221Z,31.20
2022-12-17T22:26:44.040Z,32.93
2022-12-17T22:29:10.825Z,33.30
2022-12-17T22:31:56.329Z,33.13
2022-12-17T22:35:49.045Z,30.50
2022-12-17T22:39:26.641Z,29.60
2022-12-17T22:42:49.375Z,31.07
2022-12-17T22:44:46.466Z,29.23
2022-12-17T22:45:49.891Z,29.60
2022-12-17T22:48:16.765Z,30.30
2022-12-17T22:50:51.667Z,30.80
2022-12-17T22:53:30.527Z,30.80
2022-12-17T22:56:15.861Z,29.00
2022-12-17T22:58:51.679Z,29.87
2022-12-17T23:01:22.904Z,30.77
2022-12-17T23:03:55.704Z,30.20
2022-12-17T23:06:22.629Z,27.73
2022-12-17T23:08:49.889Z,31.67
2022-12-17T23:11:19.925Z,24.80
2022-12-17T23:13:46.696Z,28.93
2022-12-17T23:16:14.221Z,26.27
2022-12-17T23:18:43.172Z,26.83
2022-12-17T23:21:13.197Z,28.87
2022-12-17T23:23:40.525Z,28.37
2022-12-17T23:26:14.153Z,30.73
2022-12-17T23:28:41.491Z,26.23
2022-12-17T23:31:19.230Z,29.80
2022-12-17T23:33:46.650Z,29.30
2022-12-17T23:36:19.662Z,31.60
2022-12-17T23:38:47.538Z,26.93
2022-12-17T23:41:17.094Z,31.90
2022-12-17T23:43:43.929Z,29.07
2022-12-17T23:46:11.406Z,26.10
2022-12-17T23:48:45.633Z,27.73
2022-12-17T23:51:14.728Z,30.30
2022-12-17T23:53:42.631Z,27.63
2022-12-17T23:56:17.516Z,28.47
2022-12-17T23:58:45.810Z,27.10
